sensor_id;sensor_type;location;lat;lon;timestamp;temperature;humidity
56162;DHT22;42045;52.986;6.014;2023-07-30T00:02:17;15.80;99.90
56162;DHT22;42045;52.986;6.014;2023-07-30T00:04:43;15.80;99.90
56162;DHT22;42045;52.986;6.014;2023-07-30T00:07:09;15.80;99.90
56162;DHT22;42045;52.986;6.014;2023-07-30T00:09:34;15.80;99.90
56162;DHT22;42045;52.986;6.014;2023-07-30T00:12:00;15.80;99.90
56162;DHT22;42045;52.986;6.014;2023-07-30T00:14:27;15.70;99.90
56162;DHT22;42045;52.986;6.014;2023-07-30T00:16:53;15.80;99.90
56162;DHT22;42045;52.986;6.014;2023-07-30T00:19:19;15.80;99.90
56162;DHT22;42045;52.986;6.014;2023-07-30T00:21:45;15.90;99.90
56162;DHT22;42045;52.986;6.014;2023-07-30T00:24:13;15.90;99.90
56162;DHT22;42045;52.986;6.014;2023-07-30T00:26:39;16.00;99.90
56162;DHT22;42045;52.986;6.014;2023-07-30T00:29:04;16.00;99.90
56162;DHT22;42045;52.986;6.014;2023-07-30T00:31:30;15.90;99.90
56162;DHT22;42045;52.986;6.014;2023-07-30T00:33:55;15.90;99.90
56162;DHT22;42045;52.986;6.014;2023-07-30T00:36:21;15.80;99.90
56162;DHT22;42045;52.986;6.014;2023-07-30T00:38:47;15.80;99.90
56162;DHT22;42045;52.986;6.014;2023-07-30T00:41:13;15.70;99.90
56162;DHT22;42045;52.986;6.014;2023-07-30T00:43:38;15.70;99.90
56162;DHT22;42045;52.986;6.014;2023-07-30T00:46:04;15.60;99.90
56162;DHT22;42045;52.986;6.014;2023-07-30T00:48:30;15.50;99.90
56162;DHT22;42045;52.986;6.014;2023-07-30T00:50:56;15.40;99.90
56162;DHT22;42045;52.986;6.014;2023-07-30T00:53:24;15.30;99.90
56162;DHT22;42045;52.986;6.014;2023-07-30T00:55:51;15.30;99.90
56162;DHT22;42045;52.986;6.014;2023-07-30T00:58:17;15.30;99.90
56162;DHT22;42045;52.986;6.014;2023-07-30T01:00:44;15.20;99.90
56162;DHT22;42045;52.986;6.014;2023-07-30T01:03:10;15.20;99.90
56162;DHT22;42045;52.986;6.014;2023-07-30T01:05:36;15.10;99.90
56162;DHT22;42045;52.986;6.014;2023-07-30T01:08:02;15.10;99.90
56162;DHT22;42045;52.986;6.014;2023-07-30T01:10:29;15.10;99.90
56162;DHT22;42045;52.986;6.014;2023-07-30T01:12:55;15.10;99.90
56162;DHT22;42045;52.986;6.014;2023-07-30T01:15:21;15.10;99.90
56162;DHT22;42045;52.986;6.014;2023-07-30T01:17:47;15.10;99.90
56162;DHT22;42045;52.986;6.014;2023-07-30T01:20:13;15.10;99.90
56162;DHT22;42045;52.986;6.014;2023-07-30T01:22:38;15.00;99.90
56162;DHT22;42045;52.986;6.014;2023-07-30T01:25:04;15.00;99.90
56162;DHT22;42045;52.986;6.014;2023-07-30T01:27:33;14.90;99.90
56162;DHT22;42045;52.986;6.014;2023-07-30T01:30:17;14.80;99.90
56162;DHT22;42045;52.986;6.014;2023-07-30T01:32:45;14.90;99.90
56162;DHT22;42045;52.986;6.014;2023-07-30T01:35:14;14.90;99.90
56162;DHT22;42045;52.986;6.014;2023-07-30T01:37:41;14.80;99.90
56162;DHT22;42045;52.986;6.014;2023-07-30T01:40:09;14.80;99.90
56162;DHT22;42045;52.986;6.014;2023-07-30T01:42:35;14.80;99.90
56162;DHT22;42045;52.986;6.014;2023-07-30T01:45:02;14.80;99.90
56162;DHT22;42045;52.986;6.014;2023-07-30T01:47:27;14.70;99.90
56162;DHT22;42045;52.986;6.014;2023-07-30T01:49:53;14.70;99.90
56162;DHT22;42045;52.986;6.014;2023-07-30T01:52:19;14.70;99.90
56162;DHT22;42045;52.986;6.014;2023-07-30T01:54:44;14.70;99.90
56162;DHT22;42045;52.986;6.014;2023-07-30T01:57:10;14.70;99.90
56162;DHT22;42045;52.986;6.014;2023-07-30T01:59:38;14.70;99.90
56162;DHT22;42045;52.986;6.014;2023-07-30T02:02:04;14.70;99.90
56162;DHT22;42045;52.986;6.014;2023-07-30T02:04:29;14.80;99.90
56162;DHT22;42045;52.986;6.014;2023-07-30T02:06:55;14.80;99.90
56162;DHT22;42045;52.986;6.014;2023-07-30T02:09:20;14.80;99.90
56162;DHT22;42045;52.986;6.014;2023-07-30T02:11:47;14.90;99.90
56162;DHT22;42045;52.986;6.014;2023-07-30T02:14:12;15.00;99.90
56162;DHT22;42045;52.986;6.014;2023-07-30T02:16:38;14.90;99.90
56162;DHT22;42045;52.986;6.014;2023-07-30T02:19:04;15.00;99.90
56162;DHT22;42045;52.986;6.014;2023-07-30T02:21:29;15.00;99.90
56162;DHT22;42045;52.986;6.014;2023-07-30T02:23:58;15.00;99.90
56162;DHT22;42045;52.986;6.014;2023-07-30T02:26:24;15.00;99.90
56162;DHT22;42045;52.986;6.014;2023-07-30T02:28:50;15.00;99.90
56162;DHT22;42045;52.986;6.014;2023-07-30T02:31:15;14.90;99.90
56162;DHT22;42045;52.986;6.014;2023-07-30T02:33:41;15.00;99.90
56162;DHT22;42045;52.986;6.014;2023-07-30T02:36:06;15.00;99.90
56162;DHT22;42045;52.986;6.014;2023-07-30T02:38:32;14.90;99.90
56162;DHT22;42045;52.986;6.014;2023-07-30T02:40:58;14.90;99.90
56162;DHT22;42045;52.986;6.014;2023-07-30T02:43:23;14.90;99.90
56162;DHT22;42045;52.986;6.014;2023-07-30T02:45:49;14.90;99.90
56162;DHT22;42045;52.986;6.014;2023-07-30T02:48:15;14.90;99.90
56162;DHT22;42045;52.986;6.014;2023-07-30T02:50:40;14.90;99.90
56162;DHT22;42045;52.986;6.014;2023-07-30T02:53:06;14.90;99.90
56162;DHT22;42045;52.986;6.014;2023-07-30T02:55:32;14.90;99.90
56162;DHT22;42045;52.986;6.014;2023-07-30T02:57:57;14.90;99.90
56162;DHT22;42045;52.986;6.014;2023-07-30T03:00:23;14.90;99.90
56162;DHT22;42045;52.986;6.014;2023-07-30T03:02:48;14.90;99.90
56162;DHT22;42045;52.986;6.014;2023-07-30T03:05:14;14.90;99.90
56162;DHT22;42045;52.986;6.014;2023-07-30T03:07:40;14.90;99.90
56162;DHT22;42045;52.986;6.014;2023-07-30T03:10:05;14.90;99.90
56162;DHT22;42045;52.986;6.014;2023-07-30T03:12:31;14.90;99.90
56162;DHT22;42045;52.986;6.014;2023-07-30T03:14:57;14.90;99.90
56162;DHT22;42045;52.986;6.014;2023-07-30T03:17:22;15.00;99.90
56162;DHT22;42045;52.986;6.014;2023-07-30T03:19:48;15.10;99.90
56162;DHT22;42045;52.986;6.014;2023-07-30T03:22:14;15.10;99.90
56162;DHT22;42045;52.986;6.014;2023-07-30T03:24:39;15.20;99.90
56162;DHT22;42045;52.986;6.014;2023-07-30T03:27:05;15.10;99.90
56162;DHT22;42045;52.986;6.014;2023-07-30T03:29:31;15.10;99.90
56162;DHT22;42045;52.986;6.014;2023-07-30T03:31:56;15.20;99.90
56162;DHT22;42045;52.986;6.014;2023-07-30T03:34:22;15.20;99.90
56162;DHT22;42045;52.986;6.014;2023-07-30T03:36:48;15.20;99.90
56162;DHT22;42045;52.986;6.014;2023-07-30T03:39:13;15.20;99.90
56162;DHT22;42045;52.986;6.014;2023-07-30T03:41:39;15.20;99.90
56162;DHT22;42045;52.986;6.014;2023-07-30T03:44:05;15.20;99.90
56162;DHT22;42045;52.986;6.014;2023-07-30T03:46:30;15.30;99.90
56162;DHT22;42045;52.986;6.014;2023-07-30T03:48:56;15.30;99.90
56162;DHT22;42045;52.986;6.014;2023-07-30T03:51:22;15.30;99.90
56162;DHT22;42045;52.986;6.014;2023-07-30T03:53:47;15.30;99.90
56162;DHT22;42045;52.986;6.014;2023-07-30T03:56:13;15.30;99.90
56162;DHT22;42045;52.986;6.014;2023-07-30T03:58:38;15.30;99.90
56162;DHT22;42045;52.986;6.014;2023-07-30T04:01:04;15.40;99.90
56162;DHT22;42045;52.986;6.014;2023-07-30T04:03:30;15.40;99.90
56162;DHT22;42045;52.986;6.014;2023-07-30T04:05:55;15.30;99.90
56162;DHT22;42045;52.986;6.014;2023-07-30T04:08:21;15.30;99.90
56162;DHT22;42045;52.986;6.014;2023-07-30T04:10:47;15.30;99.90
56162;DHT22;42045;52.986;6.014;2023-07-30T04:13:12;15.40;99.90
56162;DHT22;42045;52.986;6.014;2023-07-30T04:15:38;15.40;99.90
56162;DHT22;42045;52.986;6.014;2023-07-30T04:18:04;15.50;99.90
56162;DHT22;42045;52.986;6.014;2023-07-30T04:20:29;15.50;99.90
56162;DHT22;42045;52.986;6.014;2023-07-30T04:22:55;15.60;99.90
56162;DHT22;42045;52.986;6.014;2023-07-30T04:25:21;15.70;99.90
56162;DHT22;42045;52.986;6.014;2023-07-30T04:27:46;15.80;99.90
56162;DHT22;42045;52.986;6.014;2023-07-30T04:30:12;15.80;99.90
56162;DHT22;42045;52.986;6.014;2023-07-30T04:32:37;15.90;99.90
56162;DHT22;42045;52.986;6.014;2023-07-30T04:35:03;15.90;99.90
56162;DHT22;42045;52.986;6.014;2023-07-30T04:37:29;16.00;99.90
56162;DHT22;42045;52.986;6.014;2023-07-30T04:39:55;16.00;99.90
56162;DHT22;42045;52.986;6.014;2023-07-30T04:42:20;16.00;99.90
56162;DHT22;42045;52.986;6.014;2023-07-30T04:44:46;16.10;99.90
56162;DHT22;42045;52.986;6.014;2023-07-30T04:47:12;16.10;99.90
56162;DHT22;42045;52.986;6.014;2023-07-30T04:49:37;16.20;99.90
56162;DHT22;42045;52.986;6.014;2023-07-30T04:52:06;16.30;99.90
56162;DHT22;42045;52.986;6.014;2023-07-30T04:54:32;16.40;99.90
56162;DHT22;42045;52.986;6.014;2023-07-30T04:56:58;16.40;99.90
56162;DHT22;42045;52.986;6.014;2023-07-30T04:59:23;16.40;99.90
56162;DHT22;42045;52.986;6.014;2023-07-30T05:01:49;16.40;99.90
56162;DHT22;42045;52.986;6.014;2023-07-30T05:04:15;16.60;99.90
56162;DHT22;42045;52.986;6.014;2023-07-30T05:06:40;16.60;99.90
56162;DHT22;42045;52.986;6.014;2023-07-30T05:09:06;16.70;99.90
56162;DHT22;42045;52.986;6.014;2023-07-30T05:11:31;16.90;99.90
56162;DHT22;42045;52.986;6.014;2023-07-30T05:13:57;16.80;99.90
56162;DHT22;42045;52.986;6.014;2023-07-30T05:16:23;16.90;99.90
56162;DHT22;42045;52.986;6.014;2023-07-30T05:18:48;16.80;99.90
56162;DHT22;42045;52.986;6.014;2023-07-30T05:21:14;16.80;99.90
56162;DHT22;42045;52.986;6.014;2023-07-30T05:23:40;16.70;99.90
56162;DHT22;42045;52.986;6.014;2023-07-30T05:26:05;16.80;99.90
56162;DHT22;42045;52.986;6.014;2023-07-30T05:28:31;16.80;99.90
56162;DHT22;42045;52.986;6.014;2023-07-30T05:30:58;16.80;99.90
56162;DHT22;42045;52.986;6.014;2023-07-30T05:33:24;16.90;99.90
56162;DHT22;42045;52.986;6.014;2023-07-30T05:35:49;16.90;99.90
56162;DHT22;42045;52.986;6.014;2023-07-30T05:38:15;16.90;99.90
56162;DHT22;42045;52.986;6.014;2023-07-30T05:40:42;17.00;99.90
56162;DHT22;42045;52.986;6.014;2023-07-30T05:43:07;17.00;99.90
56162;DHT22;42045;52.986;6.014;2023-07-30T05:45:34;17.00;99.90
56162;DHT22;42045;52.986;6.014;2023-07-30T05:47:59;17.00;99.90
56162;DHT22;42045;52.986;6.014;2023-07-30T05:50:25;17.10;99.90
56162;DHT22;42045;52.986;6.014;2023-07-30T05:52:50;17.10;99.90
56162;DHT22;42045;52.986;6.014;2023-07-30T05:55:16;17.10;99.90
56162;DHT22;42045;52.986;6.014;2023-07-30T05:57:42;17.10;99.90
56162;DHT22;42045;52.986;6.014;2023-07-30T06:00:08;17.10;99.90
56162;DHT22;42045;52.986;6.014;2023-07-30T06:02:34;17.10;99.90
56162;DHT22;42045;52.986;6.014;2023-07-30T06:04:59;17.10;99.90
56162;DHT22;42045;52.986;6.014;2023-07-30T06:07:25;17.20;99.90
56162;DHT22;42045;52.986;6.014;2023-07-30T06:09:50;17.30;99.90
56162;DHT22;42045;52.986;6.014;2023-07-30T06:12:16;17.40;99.90
56162;DHT22;42045;52.986;6.014;2023-07-30T06:14:42;17.50;99.90
56162;DHT22;42045;52.986;6.014;2023-07-30T06:17:07;17.60;99.90
56162;DHT22;42045;52.986;6.014;2023-07-30T06:19:34;17.70;99.90
56162;DHT22;42045;52.986;6.014;2023-07-30T06:21:59;17.90;99.90
56162;DHT22;42045;52.986;6.014;2023-07-30T06:24:25;18.10;99.90
56162;DHT22;42045;52.986;6.014;2023-07-30T06:26:51;18.30;99.90
56162;DHT22;42045;52.986;6.014;2023-07-30T06:29:17;18.90;99.90
56162;DHT22;42045;52.986;6.014;2023-07-30T06:31:42;19.30;99.90
56162;DHT22;42045;52.986;6.014;2023-07-30T06:34:08;19.80;99.90
56162;DHT22;42045;52.986;6.014;2023-07-30T06:36:34;20.30;99.90
56162;DHT22;42045;52.986;6.014;2023-07-30T06:38:59;20.90;99.90
56162;DHT22;42045;52.986;6.014;2023-07-30T06:41:25;21.10;99.90
56162;DHT22;42045;52.986;6.014;2023-07-30T06:43:51;21.40;99.90
56162;DHT22;42045;52.986;6.014;2023-07-30T06:46:16;21.80;99.90
56162;DHT22;42045;52.986;6.014;2023-07-30T06:48:42;22.40;99.90
56162;DHT22;42045;52.986;6.014;2023-07-30T06:51:09;22.80;99.90
56162;DHT22;42045;52.986;6.014;2023-07-30T06:53:35;22.60;99.90
56162;DHT22;42045;52.986;6.014;2023-07-30T06:56:01;22.00;99.90
56162;DHT22;42045;52.986;6.014;2023-07-30T06:58:26;21.60;99.90
56162;DHT22;42045;52.986;6.014;2023-07-30T07:00:52;21.20;99.90
56162;DHT22;42045;52.986;6.014;2023-07-30T07:03:18;21.00;99.90
56162;DHT22;42045;52.986;6.014;2023-07-30T07:05:43;22.10;99.90
56162;DHT22;42045;52.986;6.014;2023-07-30T07:08:09;23.40;99.90
56162;DHT22;42045;52.986;6.014;2023-07-30T07:10:34;24.50;99.90
56162;DHT22;42045;52.986;6.014;2023-07-30T07:13:00;25.70;99.70
56162;DHT22;42045;52.986;6.014;2023-07-30T07:15:26;25.70;98.70
56162;DHT22;42045;52.986;6.014;2023-07-30T07:17:51;24.80;99.00
56162;DHT22;42045;52.986;6.014;2023-07-30T07:20:17;23.60;99.60
56162;DHT22;42045;52.986;6.014;2023-07-30T07:22:43;22.30;99.90
56162;DHT22;42045;52.986;6.014;2023-07-30T07:25:09;21.80;99.90
56162;DHT22;42045;52.986;6.014;2023-07-30T07:27:35;21.20;99.90
56162;DHT22;42045;52.986;6.014;2023-07-30T07:30:01;20.90;99.90
56162;DHT22;42045;52.986;6.014;2023-07-30T07:32:27;20.30;99.90
56162;DHT22;42045;52.986;6.014;2023-07-30T07:34:52;19.90;99.90
56162;DHT22;42045;52.986;6.014;2023-07-30T07:37:18;19.60;99.90
56162;DHT22;42045;52.986;6.014;2023-07-30T07:39:45;19.30;99.90
56162;DHT22;42045;52.986;6.014;2023-07-30T07:42:11;19.00;99.90
56162;DHT22;42045;52.986;6.014;2023-07-30T07:44:37;18.70;99.90
56162;DHT22;42045;52.986;6.014;2023-07-30T07:47:03;18.50;99.90
56162;DHT22;42045;52.986;6.014;2023-07-30T07:49:29;18.40;99.90
56162;DHT22;42045;52.986;6.014;2023-07-30T07:51:54;18.40;99.90
56162;DHT22;42045;52.986;6.014;2023-07-30T07:54:20;18.60;99.90
56162;DHT22;42045;52.986;6.014;2023-07-30T07:56:46;18.80;99.90
56162;DHT22;42045;52.986;6.014;2023-07-30T07:59:12;18.80;99.90
56162;DHT22;42045;52.986;6.014;2023-07-30T08:01:37;18.60;99.90
56162;DHT22;42045;52.986;6.014;2023-07-30T08:04:03;18.60;99.90
56162;DHT22;42045;52.986;6.014;2023-07-30T08:06:29;18.50;99.90
56162;DHT22;42045;52.986;6.014;2023-07-30T08:08:56;18.50;99.90
56162;DHT22;42045;52.986;6.014;2023-07-30T08:11:22;18.50;99.90
56162;DHT22;42045;52.986;6.014;2023-07-30T08:13:47;18.50;99.90
56162;DHT22;42045;52.986;6.014;2023-07-30T08:16:13;18.50;99.90
56162;DHT22;42045;52.986;6.014;2023-07-30T08:18:39;18.60;99.90
56162;DHT22;42045;52.986;6.014;2023-07-30T08:21:05;19.00;99.90
56162;DHT22;42045;52.986;6.014;2023-07-30T08:23:30;19.30;99.90
56162;DHT22;42045;52.986;6.014;2023-07-30T08:25:56;19.60;99.90
56162;DHT22;42045;52.986;6.014;2023-07-30T08:28:22;19.70;99.90
56162;DHT22;42045;52.986;6.014;2023-07-30T08:30:47;19.90;99.90
56162;DHT22;42045;52.986;6.014;2023-07-30T08:33:13;20.10;99.90
56162;DHT22;42045;52.986;6.014;2023-07-30T08:35:39;20.20;99.90
56162;DHT22;42045;52.986;6.014;2023-07-30T08:38:05;20.20;99.90
56162;DHT22;42045;52.986;6.014;2023-07-30T08:40:31;19.90;99.90
56162;DHT22;42045;52.986;6.014;2023-07-30T08:42:57;19.90;99.90
56162;DHT22;42045;52.986;6.014;2023-07-30T08:45:23;19.60;99.90
56162;DHT22;42045;52.986;6.014;2023-07-30T08:47:49;19.30;99.90
56162;DHT22;42045;52.986;6.014;2023-07-30T08:50:15;19.00;99.90
56162;DHT22;42045;52.986;6.014;2023-07-30T08:52:41;18.40;99.90
56162;DHT22;42045;52.986;6.014;2023-07-30T08:55:08;18.20;99.90
56162;DHT22;42045;52.986;6.014;2023-07-30T08:57:35;18.10;99.90
56162;DHT22;42045;52.986;6.014;2023-07-30T09:00:04;17.80;99.90
56162;DHT22;42045;52.986;6.014;2023-07-30T09:02:37;17.60;99.90
56162;DHT22;42045;52.986;6.014;2023-07-30T09:05:04;17.50;99.90
56162;DHT22;42045;52.986;6.014;2023-07-30T09:07:30;17.60;99.90
56162;DHT22;42045;52.986;6.014;2023-07-30T09:09:56;17.60;99.90
56162;DHT22;42045;52.986;6.014;2023-07-30T09:12:31;17.70;99.90
56162;DHT22;42045;52.986;6.014;2023-07-30T09:14:58;17.90;99.90
56162;DHT22;42045;52.986;6.014;2023-07-30T09:17:24;17.90;99.90
56162;DHT22;42045;52.986;6.014;2023-07-30T09:19:50;18.10;99.90
56162;DHT22;42045;52.986;6.014;2023-07-30T09:22:42;18.10;99.90
56162;DHT22;42045;52.986;6.014;2023-07-30T09:25:08;18.20;99.90
56162;DHT22;42045;52.986;6.014;2023-07-30T09:27:34;18.40;99.90
56162;DHT22;42045;52.986;6.014;2023-07-30T09:30:02;18.80;99.90
56162;DHT22;42045;52.986;6.014;2023-07-30T09:32:33;19.30;99.90
56162;DHT22;42045;52.986;6.014;2023-07-30T09:35:09;19.90;99.90
56162;DHT22;42045;52.986;6.014;2023-07-30T09:37:40;20.20;99.90
56162;DHT22;42045;52.986;6.014;2023-07-30T09:40:07;20.30;99.90
56162;DHT22;42045;52.986;6.014;2023-07-30T09:42:34;20.60;99.90
56162;DHT22;42045;52.986;6.014;2023-07-30T09:45:00;20.70;99.90
56162;DHT22;42045;52.986;6.014;2023-07-30T09:47:27;20.60;99.90
56162;DHT22;42045;52.986;6.014;2023-07-30T09:49:53;20.80;99.90
56162;DHT22;42045;52.986;6.014;2023-07-30T09:52:20;21.10;99.90
56162;DHT22;42045;52.986;6.014;2023-07-30T09:54:48;21.10;99.90
56162;DHT22;42045;52.986;6.014;2023-07-30T09:57:15;21.30;99.90
56162;DHT22;42045;52.986;6.014;2023-07-30T09:59:41;21.50;99.90
56162;DHT22;42045;52.986;6.014;2023-07-30T10:02:08;21.80;99.90
56162;DHT22;42045;52.986;6.014;2023-07-30T10:04:37;21.80;99.90
56162;DHT22;42045;52.986;6.014;2023-07-30T10:07:08;22.00;99.90
56162;DHT22;42045;52.986;6.014;2023-07-30T10:09:39;21.80;99.90
56162;DHT22;42045;52.986;6.014;2023-07-30T10:12:18;21.40;99.90
56162;DHT22;42045;52.986;6.014;2023-07-30T10:14:45;21.10;99.90
56162;DHT22;42045;52.986;6.014;2023-07-30T10:17:12;21.10;99.90
56162;DHT22;42045;52.986;6.014;2023-07-30T10:19:38;21.30;99.90
56162;DHT22;42045;52.986;6.014;2023-07-30T10:24:55;21.70;99.90
56162;DHT22;42045;52.986;6.014;2023-07-30T10:27:24;22.10;99.90
56162;DHT22;42045;52.986;6.014;2023-07-30T10:30:14;22.40;99.90
56162;DHT22;42045;52.986;6.014;2023-07-30T10:38:22;22.60;99.90
56162;DHT22;42045;52.986;6.014;2023-07-30T10:41:00;22.80;99.90
56162;DHT22;42045;52.986;6.014;2023-07-30T10:43:47;22.70;99.90
56162;DHT22;42045;52.986;6.014;2023-07-30T10:46:15;22.50;99.90
56162;DHT22;42045;52.986;6.014;2023-07-30T10:48:43;22.30;99.90
56162;DHT22;42045;52.986;6.014;2023-07-30T10:51:11;22.10;99.90
56162;DHT22;42045;52.986;6.014;2023-07-30T10:53:37;22.10;99.90
56162;DHT22;42045;52.986;6.014;2023-07-30T10:56:04;21.90;99.90
56162;DHT22;42045;52.986;6.014;2023-07-30T10:58:31;22.00;99.90
56162;DHT22;42045;52.986;6.014;2023-07-30T11:00:57;22.30;99.90
56162;DHT22;42045;52.986;6.014;2023-07-30T11:03:26;22.40;99.90
56162;DHT22;42045;52.986;6.014;2023-07-30T11:05:52;22.80;99.90
56162;DHT22;42045;52.986;6.014;2023-07-30T11:08:18;22.60;99.90
56162;DHT22;42045;52.986;6.014;2023-07-30T11:10:45;22.30;99.90
56162;DHT22;42045;52.986;6.014;2023-07-30T11:13:13;22.30;99.90
56162;DHT22;42045;52.986;6.014;2023-07-30T11:15:45;22.30;99.90
56162;DHT22;42045;52.986;6.014;2023-07-30T11:18:12;22.20;99.90
56162;DHT22;42045;52.986;6.014;2023-07-30T11:20:38;22.00;99.90
56162;DHT22;42045;52.986;6.014;2023-07-30T11:23:21;21.80;99.90
56162;DHT22;42045;52.986;6.014;2023-07-30T11:25:50;21.60;99.90
56162;DHT22;42045;52.986;6.014;2023-07-30T11:28:33;21.50;99.90
56162;DHT22;42045;52.986;6.014;2023-07-30T11:31:03;21.40;99.90
56162;DHT22;42045;52.986;6.014;2023-07-30T11:33:30;21.40;99.90
56162;DHT22;42045;52.986;6.014;2023-07-30T11:35:56;21.40;99.90
56162;DHT22;42045;52.986;6.014;2023-07-30T11:38:26;21.60;99.90
56162;DHT22;42045;52.986;6.014;2023-07-30T11:40:52;22.10;99.90
56162;DHT22;42045;52.986;6.014;2023-07-30T11:43:19;22.50;99.90
56162;DHT22;42045;52.986;6.014;2023-07-30T11:45:45;22.30;99.90
56162;DHT22;42045;52.986;6.014;2023-07-30T11:48:11;21.90;99.90
56162;DHT22;42045;52.986;6.014;2023-07-30T11:53:13;20.90;99.90
56162;DHT22;42045;52.986;6.014;2023-07-30T11:55:40;20.30;99.90
56162;DHT22;42045;52.986;6.014;2023-07-30T11:58:06;20.20;99.90
56162;DHT22;42045;52.986;6.014;2023-07-30T12:00:32;19.90;99.90
56162;DHT22;42045;52.986;6.014;2023-07-30T12:03:06;19.60;99.90
56162;DHT22;42045;52.986;6.014;2023-07-30T12:05:37;19.30;99.90
56162;DHT22;42045;52.986;6.014;2023-07-30T12:08:04;19.20;99.90
56162;DHT22;42045;52.986;6.014;2023-07-30T12:10:46;18.90;99.90
56162;DHT22;42045;52.986;6.014;2023-07-30T12:13:20;18.90;99.90
56162;DHT22;42045;52.986;6.014;2023-07-30T12:15:53;19.10;99.90
56162;DHT22;42045;52.986;6.014;2023-07-30T12:18:19;19.30;99.90
56162;DHT22;42045;52.986;6.014;2023-07-30T12:20:46;19.40;99.90
56162;DHT22;42045;52.986;6.014;2023-07-30T12:23:13;19.50;99.90
56162;DHT22;42045;52.986;6.014;2023-07-30T12:25:38;19.50;99.90
56162;DHT22;42045;52.986;6.014;2023-07-30T12:28:04;19.70;99.90
56162;DHT22;42045;52.986;6.014;2023-07-30T12:30:30;19.70;99.90
56162;DHT22;42045;52.986;6.014;2023-07-30T12:32:56;19.80;99.90
56162;DHT22;42045;52.986;6.014;2023-07-30T12:35:23;19.80;99.90
56162;DHT22;42045;52.986;6.014;2023-07-30T12:37:49;20.00;99.90
56162;DHT22;42045;52.986;6.014;2023-07-30T12:40:16;20.20;99.90
56162;DHT22;42045;52.986;6.014;2023-07-30T12:42:42;20.40;99.90
56162;DHT22;42045;52.986;6.014;2023-07-30T12:45:07;20.70;99.90
56162;DHT22;42045;52.986;6.014;2023-07-30T12:47:33;20.70;99.90
56162;DHT22;42045;52.986;6.014;2023-07-30T12:50:01;20.80;99.90
56162;DHT22;42045;52.986;6.014;2023-07-30T12:52:27;20.50;99.90
56162;DHT22;42045;52.986;6.014;2023-07-30T12:54:53;20.50;99.90
56162;DHT22;42045;52.986;6.014;2023-07-30T12:57:18;20.40;99.90
56162;DHT22;42045;52.986;6.014;2023-07-30T12:59:44;20.40;99.90
56162;DHT22;42045;52.986;6.014;2023-07-30T13:02:09;20.50;99.90
56162;DHT22;42045;52.986;6.014;2023-07-30T13:04:36;20.70;99.90
56162;DHT22;42045;52.986;6.014;2023-07-30T13:07:02;20.80;99.90
56162;DHT22;42045;52.986;6.014;2023-07-30T13:09:28;20.70;99.90
56162;DHT22;42045;52.986;6.014;2023-07-30T13:11:54;20.50;99.90
56162;DHT22;42045;52.986;6.014;2023-07-30T13:14:20;20.60;99.90
56162;DHT22;42045;52.986;6.014;2023-07-30T13:16:45;20.80;99.90
56162;DHT22;42045;52.986;6.014;2023-07-30T13:19:11;20.90;99.90
56162;DHT22;42045;52.986;6.014;2023-07-30T13:21:37;20.70;99.90
56162;DHT22;42045;52.986;6.014;2023-07-30T13:24:03;20.60;99.90
56162;DHT22;42045;52.986;6.014;2023-07-30T13:26:29;20.50;99.90
56162;DHT22;42045;52.986;6.014;2023-07-30T13:28:54;20.50;99.90
56162;DHT22;42045;52.986;6.014;2023-07-30T13:31:20;20.60;99.90
56162;DHT22;42045;52.986;6.014;2023-07-30T13:33:46;20.60;99.90
56162;DHT22;42045;52.986;6.014;2023-07-30T13:36:12;20.70;99.90
56162;DHT22;42045;52.986;6.014;2023-07-30T13:38:38;20.90;99.90
56162;DHT22;42045;52.986;6.014;2023-07-30T13:41:07;21.30;99.90
56162;DHT22;42045;52.986;6.014;2023-07-30T13:43:33;21.40;99.90
56162;DHT22;42045;52.986;6.014;2023-07-30T13:45:59;21.50;99.90
56162;DHT22;42045;52.986;6.014;2023-07-30T13:48:25;21.60;99.90
56162;DHT22;42045;52.986;6.014;2023-07-30T13:50:51;21.50;99.90
56162;DHT22;42045;52.986;6.014;2023-07-30T13:53:17;21.40;99.90
56162;DHT22;42045;52.986;6.014;2023-07-30T13:55:43;21.20;99.90
56162;DHT22;42045;52.986;6.014;2023-07-30T13:58:09;20.90;99.90
56162;DHT22;42045;52.986;6.014;2023-07-30T14:00:34;20.80;99.90
56162;DHT22;42045;52.986;6.014;2023-07-30T14:03:00;20.70;99.90
56162;DHT22;42045;52.986;6.014;2023-07-30T14:05:26;21.00;99.90
56162;DHT22;42045;52.986;6.014;2023-07-30T14:07:54;21.10;99.90
56162;DHT22;42045;52.986;6.014;2023-07-30T14:10:22;21.10;99.90
56162;DHT22;42045;52.986;6.014;2023-07-30T14:12:48;20.80;99.90
56162;DHT22;42045;52.986;6.014;2023-07-30T14:15:14;20.70;99.90
56162;DHT22;42045;52.986;6.014;2023-07-30T14:17:41;20.80;99.90
56162;DHT22;42045;52.986;6.014;2023-07-30T14:20:07;20.80;99.90
56162;DHT22;42045;52.986;6.014;2023-07-30T14:22:34;20.60;99.90
56162;DHT22;42045;52.986;6.014;2023-07-30T14:25:00;20.40;99.90
56162;DHT22;42045;52.986;6.014;2023-07-30T14:27:26;20.20;99.90
56162;DHT22;42045;52.986;6.014;2023-07-30T14:29:52;20.10;99.90
56162;DHT22;42045;52.986;6.014;2023-07-30T14:32:19;20.10;99.90
56162;DHT22;42045;52.986;6.014;2023-07-30T14:34:45;20.00;99.90
56162;DHT22;42045;52.986;6.014;2023-07-30T14:37:11;19.70;99.90
56162;DHT22;42045;52.986;6.014;2023-07-30T14:39:37;19.60;99.90
56162;DHT22;42045;52.986;6.014;2023-07-30T14:42:02;19.50;99.90
56162;DHT22;42045;52.986;6.014;2023-07-30T14:44:28;19.20;99.90
56162;DHT22;42045;52.986;6.014;2023-07-30T14:46:54;18.80;99.90
56162;DHT22;42045;52.986;6.014;2023-07-30T14:49:19;18.70;99.90
56162;DHT22;42045;52.986;6.014;2023-07-30T14:51:45;18.40;99.90
56162;DHT22;42045;52.986;6.014;2023-07-30T14:54:12;18.50;99.90
56162;DHT22;42045;52.986;6.014;2023-07-30T14:56:38;18.60;99.90
56162;DHT22;42045;52.986;6.014;2023-07-30T14:59:04;18.80;99.90
56162;DHT22;42045;52.986;6.014;2023-07-30T15:01:30;18.80;99.90
56162;DHT22;42045;52.986;6.014;2023-07-30T15:03:56;18.70;99.90
56162;DHT22;42045;52.986;6.014;2023-07-30T15:06:23;18.70;99.90
56162;DHT22;42045;52.986;6.014;2023-07-30T15:08:49;18.90;99.90
56162;DHT22;42045;52.986;6.014;2023-07-30T15:11:15;19.10;99.90
56162;DHT22;42045;52.986;6.014;2023-07-30T15:13:40;19.40;99.90
56162;DHT22;42045;52.986;6.014;2023-07-30T15:16:06;19.60;99.90
56162;DHT22;42045;52.986;6.014;2023-07-30T15:18:32;19.60;99.90
56162;DHT22;42045;52.986;6.014;2023-07-30T15:20:58;19.50;99.90
56162;DHT22;42045;52.986;6.014;2023-07-30T15:23:24;19.60;99.90
56162;DHT22;42045;52.986;6.014;2023-07-30T15:25:50;19.60;99.90
56162;DHT22;42045;52.986;6.014;2023-07-30T15:28:17;19.50;99.90
56162;DHT22;42045;52.986;6.014;2023-07-30T15:30:43;19.40;99.90
56162;DHT22;42045;52.986;6.014;2023-07-30T15:33:09;19.40;99.90
56162;DHT22;42045;52.986;6.014;2023-07-30T15:35:35;19.50;99.90
56162;DHT22;42045;52.986;6.014;2023-07-30T15:38:04;19.80;99.90